Big Sandy, Texas
Current Conditions -  °F | °C
As of 6:53 AM on Friday 24 Oct 2014 (Local Time) from KTYR Reporting Station
Overcast Overcast  
Wind Chill: 58°   Ceiling: 6000
Heat Index: 58°   Visibility: 10mi
Dew Point: 53°   Wind: 5mph
Humidity: 84%   Direction: 180°S
Pressure: 30.15"   Gusts: NA
Location:  32.59°N, 95.11°W
Report Text: KTYR 241153Z 18004KT 10SM OVC060 14/12 A3015 RMK AO2 SLP205 T01440117 10150 20133 53007
Loading
Personal Weather Stations






























Interactive Weather Map
Tropical Storm Tracking
New forecast layout! Learn more

10-Day Weather Forecast

Advertisements
Track Severe Weather on mobile